Time;durP1;ratioP1;P1;durP2;ratioP2;P2;SDS_P1;SDS_P2;PMS_P1;PMS_P2;Temp;Humidity;BMP_temperature;BMP_pressure;BME280_temperature;BME280_humidity;BME280_pressure;Samples;Min_cycle;Max_cycle;Signal;HPM_P1;HPM_P2
2022/06/13 00:02:24;;;;;;;2.97;2.10;;;;;;;21.63;61.17;96851.50;6274305;22;20020;-79
2022/06/13 00:04:57;;;;;;;2.58;2.05;;;;;;;21.63;61.73;96862.91;6273759;22;20016;-79
2022/06/13 00:07:30;;;;;;;4.63;2.80;;;;;;;21.65;61.54;96876.75;6274223;22;20020;-78
2022/06/13 00:10:12;;;;;;;2.33;2.20;;;;;;;21.66;60.85;96902.22;6265785;22;20049;-80
2022/06/13 00:12:44;;;;;;;4.22;2.15;;;;;;;21.67;60.61;96951.66;6273188;23;20008;-80
2022/06/13 00:15:20;;;;;;;3.85;2.28;;;;;;;21.64;60.65;96989.28;6273537;22;20004;-79
2022/06/13 00:18:05;;;;;;;6.15;2.22;;;;;;;21.60;61.02;96998.78;6273828;22;20027;-79
2022/06/13 00:20:46;;;;;;;6.53;2.35;;;;;;;21.48;62.23;97009.47;6273917;22;20000;-79
2022/06/13 00:23:16;;;;;;;2.22;2.08;;;;;;;21.39;62.70;97003.75;6267823;22;20024;-79
2022/06/13 00:25:45;;;;;;;3.38;2.20;;;;;;;21.30;62.94;97005.19;6276883;22;20012;-79
2022/06/13 00:28:19;;;;;;;2.63;2.40;;;;;;;21.20;63.49;97010.31;6277741;22;20382;-79
2022/06/13 00:31:02;;;;;;;3.78;2.45;;;;;;;21.14;63.87;97019.22;6277084;22;20022;-78
2022/06/13 00:33:32;;;;;;;4.32;2.95;;;;;;;21.07;63.91;97011.41;6277298;22;20027;-78
2022/06/13 00:36:05;;;;;;;3.67;1.70;;;;;;;21.03;63.43;97015.59;6276889;22;20020;-78
2022/06/13 00:38:36;;;;;;;1.75;1.40;;;;;;;21.00;63.34;97005.47;6276852;22;20015;-79
2022/06/13 00:41:09;;;;;;;3.30;1.80;;;;;;;20.96;63.36;96994.53;6277601;22;20020;-78
2022/06/13 00:43:40;;;;;;;1.90;1.60;;;;;;;20.93;63.67;96989.69;6276642;22;20090;-78
2022/06/13 00:46:20;;;;;;;2.17;1.90;;;;;;;20.88;63.90;96965.75;6276708;22;20094;-79
2022/06/13 00:48:51;;;;;;;3.28;1.98;;;;;;;20.83;64.43;96951.59;6275531;22;20076;-79
2022/06/13 00:51:21;;;;;;;3.35;1.85;;;;;;;20.77;63.83;96922.34;6275464;22;20070;-78
2022/06/13 00:53:50;;;;;;;2.72;2.17;;;;;;;20.70;64.26;96887.22;6275514;22;20085;-78
2022/06/13 00:56:23;;;;;;;3.10;1.60;;;;;;;20.60;64.73;96844.66;6275165;22;20459;-78
2022/06/13 00:58:55;;;;;;;3.05;1.92;;;;;;;20.43;65.28;96820.75;6274754;22;20019;-78
2022/06/13 01:01:24;;;;;;;3.65;2.08;;;;;;;20.26;66.37;96870.25;6276154;22;20464;-79
2022/06/13 01:03:52;;;;;;;3.00;2.10;;;;;;;20.26;67.53;96883.50;6276622;22;20023;-78
2022/06/13 01:06:22;;;;;;;8.15;2.63;;;;;;;20.30;67.27;96879.31;6275845;22;20345;-78
2022/06/13 01:08:50;;;;;;;5.93;2.45;;;;;;;20.33;67.50;96884.16;6275736;22;20016;-78
2022/06/13 01:11:20;;;;;;;3.10;1.70;;;;;;;20.34;67.33;96883.91;6275252;22;20094;-78
2022/06/13 01:14:28;;;;;;;3.58;2.10;;;;;;;20.39;68.04;96883.19;6275846;22;20023;-78
2022/06/13 01:17:10;;;;;;;3.10;1.80;;;;;;;20.37;66.28;96877.34;6276394;22;20024;-78
2022/06/13 01:20:04;;;;;;;2.13;1.30;;;;;;;20.34;66.74;96870.66;6276556;22;20094;-78
2022/06/13 01:23:02;;;;;;;2.03;1.63;;;;;;;20.34;66.84;96853.97;6276353;22;20024;-78
2022/06/13 01:26:05;;;;;;;5.25;1.92;;;;;;;20.36;67.33;96836.00;6300377;22;20024;-79
2022/06/13 01:28:50;;;;;;;4.13;1.83;;;;;;;20.30;66.78;96827.16;6274424;22;20027;-78
2022/06/13 01:31:27;;;;;;;4.78;2.30;;;;;;;20.28;68.09;96823.94;6278616;22;20098;-78
2022/06/13 01:34:05;;;;;;;3.70;1.88;;;;;;;20.22;66.89;96818.78;6286650;22;20031;-80
2022/06/13 01:36:40;;;;;;;4.47;2.08;;;;;;;20.16;66.90;96815.25;6293460;22;20043;-78
2022/06/13 01:39:21;;;;;;;6.07;2.28;;;;;;;20.16;68.30;96802.81;6286280;22;20550;-79
2022/06/13 01:42:01;;;;;;;2.72;2.00;;;;;;;20.12;66.78;96792.94;6273964;22;20351;-78
2022/06/13 01:44:40;;;;;;;4.43;2.42;;;;;;;20.12;66.69;96803.53;6274055;22;20023;-79
2022/06/13 01:47:14;;;;;;;3.17;2.45;;;;;;;20.09;66.68;96801.34;6273529;22;20027;-78
2022/06/13 01:49:53;;;;;;;1.77;1.55;;;;;;;20.06;66.44;96793.88;6274587;22;20394;-78
2022/06/13 01:52:29;;;;;;;2.53;1.90;;;;;;;19.98;66.33;96800.34;6277327;22;20058;-78
2022/06/13 01:55:03;;;;;;;2.42;1.80;;;;;;;19.90;66.01;96806.81;6275935;22;20026;-78
2022/06/13 01:57:38;;;;;;;3.63;1.50;;;;;;;19.82;66.49;96809.03;6276454;22;20043;-78
2022/06/13 02:00:10;;;;;;;3.70;1.90;;;;;;;19.73;66.25;96814.69;6275693;22;20015;-78
2022/06/13 02:02:47;;;;;;;1.48;1.38;;;;;;;19.64;66.57;96818.72;6274278;22;20020;-78
2022/06/13 02:05:21;;;;;;;3.13;1.63;;;;;;;19.57;66.27;96820.72;6274506;22;20031;-78
2022/06/13 02:07:56;;;;;;;3.00;1.95;;;;;;;19.53;66.14;96822.22;6274163;22;20066;-78
2022/06/13 02:10:50;;;;;;;1.67;1.40;;;;;;;19.46;66.67;96822.34;6275645;22;20019;-78
2022/06/13 02:13:24;;;;;;;1.67;1.00;;;;;;;19.42;66.87;96830.97;6275623;22;20043;-78
2022/06/13 02:15:57;;;;;;;1.25;1.15;;;;;;;19.43;69.21;96837.84;6275226;22;20043;-78
2022/06/13 02:18:32;;;;;;;1.33;1.23;;;;;;;19.43;66.86;96838.66;6274044;22;20085;-79
2022/06/13 02:21:07;;;;;;;1.63;1.17;;;;;;;19.46;69.12;96840.03;6275889;22;20023;-78
2022/06/13 02:23:41;;;;;;;1.65;1.17;;;;;;;19.52;68.27;96847.84;6277986;22;20043;-78
2022/06/13 02:26:12;;;;;;;2.05;1.40;;;;;;;19.56;68.77;96845.53;6276666;22;20015;-78
2022/06/13 02:28:46;;;;;;;2.17;1.50;;;;;;;19.60;68.50;96843.25;6277512;22;20473;-78
2022/06/13 02:31:18;;;;;;;2.20;1.40;;;;;;;19.66;69.53;96843.13;6277206;22;20406;-78
2022/06/13 02:33:55;;;;;;;1.50;1.00;;;;;;;19.70;69.44;96849.59;6277572;22;20477;-78
2022/06/13 02:36:32;;;;;;;1.77;1.20;;;;;;;19.71;66.93;96858.31;6277734;22;20459;-78
2022/06/13 02:39:05;;;;;;;2.28;1.40;;;;;;;19.71;67.91;96860.97;6277624;22;20039;-79
2022/06/13 02:41:40;;;;;;;3.15;1.70;;;;;;;19.66;66.70;96853.69;6277695;22;20104;-78
2022/06/13 02:44:13;;;;;;;2.50;1.70;;;;;;;19.59;66.60;96852.22;6278044;22;20216;-79
2022/06/13 02:46:46;;;;;;;3.15;1.27;;;;;;;19.59;69.21;96858.31;6278153;22;20023;-78
2022/06/13 02:49:22;;;;;;;1.88;1.30;;;;;;;19.61;67.42;96855.44;6278467;22;20019;-78
2022/06/13 02:51:59;;;;;;;1.38;0.93;;;;;;;19.64;68.96;96860.28;6298420;22;20020;-78
2022/06/13 02:54:32;;;;;;;1.90;1.55;;;;;;;19.63;66.52;96859.44;6301048;22;20031;-78
2022/06/13 02:57:25;;;;;;;1.80;1.70;;;;;;;19.56;66.31;96854.28;6289178;22;20043;-78
2022/06/13 03:00:00;;;;;;;;;;;;;;;19.54;65.82;96863.50;6278800;22;20023;-78
2022/06/13 03:02:40;;;;;;;1.60;1.50;;;;;;;19.47;67.12;96860.19;6277448;22;19915;-78
2022/06/13 03:05:23;;;;;;;1.55;1.45;;;;;;;19.50;70.27;96870.28;6277711;22;20028;-78
2022/06/13 03:07:58;;;;;;;2.85;1.90;;;;;;;19.49;66.74;96858.91;6277119;22;20069;-79
2022/06/13 03:10:36;;;;;;;1.88;1.77;;;;;;;19.48;67.47;96856.47;6277513;22;20020;-78
2022/06/13 03:13:09;;;;;;;1.80;1.70;;;;;;;19.43;67.23;96864.31;6277119;22;20034;-79
2022/06/13 03:15:46;;;;;;;2.97;1.70;;;;;;;19.41;68.43;96867.19;6277348;22;20363;-78
2022/06/13 03:18:21;;;;;;;4.38;1.70;;;;;;;19.45;68.16;96872.81;6277369;22;20081;-78
2022/06/13 03:20:56;;;;;;;2.25;1.95;;;;;;;19.41;67.03;96861.88;6277062;22;20027;-78
2022/06/13 03:23:30;;;;;;;3.70;2.10;;;;;;;19.40;68.69;96856.84;6276911;22;20039;-78
2022/06/13 03:26:02;;;;;;;1.80;1.42;;;;;;;19.40;68.60;96851.56;6277064;22;20023;-79
2022/06/13 03:28:35;;;;;;;5.00;1.92;;;;;;;19.39;67.18;96852.59;6277210;22;20133;-78
2022/06/13 03:31:12;;;;;;;2.05;1.85;;;;;;;19.37;67.74;96852.00;6277218;22;20028;-78
2022/06/13 03:33:43;;;;;;;1.98;1.88;;;;;;;19.31;68.02;96851.91;6277498;22;20024;-78
2022/06/13 03:36:21;;;;;;;2.33;2.13;;;;;;;19.27;68.67;96853.41;6276951;22;20035;-78
2022/06/13 03:38:54;;;;;;;3.13;2.33;;;;;;;19.28;69.39;96857.63;6276523;22;20098;-78
2022/06/13 03:41:26;;;;;;;1.95;1.80;;;;;;;19.30;68.88;96863.50;6276341;22;20020;-78
2022/06/13 03:43:58;;;;;;;3.40;2.15;;;;;;;19.35;70.45;96861.00;6277531;22;20094;-78
2022/06/13 03:46:31;;;;;;;2.10;1.92;;;;;;;19.39;69.88;96856.03;6277298;22;20024;-78
2022/06/13 03:49:04;;;;;;;2.83;2.25;;;;;;;19.40;69.08;96852.38;6277868;22;20359;-78
2022/06/13 03:51:38;;;;;;;2.38;2.17;;;;;;;19.34;68.42;96861.22;6277685;22;20024;-78
2022/06/13 03:54:12;;;;;;;2.65;2.45;;;;;;;19.28;67.60;96851.56;6277174;22;20459;-78
2022/06/13 03:56:49;;;;;;;3.35;2.67;;;;;;;19.19;67.65;96852.94;6278178;22;20051;-78
2022/06/13 03:59:22;;;;;;;3.75;2.03;;;;;;;19.18;69.10;96868.00;6277072;22;20093;-79
2022/06/13 04:01:54;;;;;;;4.13;2.60;;;;;;;19.20;69.45;96865.94;6276552;22;20027;-78
2022/06/13 04:04:26;;;;;;;2.55;2.35;;;;;;;19.23;68.59;96860.19;6277580;22;20111;-78
2022/06/13 04:06:56;;;;;;;4.25;1.98;;;;;;;19.26;70.56;96859.75;6278765;22;20020;-78
2022/06/13 04:09:29;;;;;;;4.72;2.17;;;;;;;19.32;70.89;96864.09;6277431;22;20355;-78
2022/06/13 04:12:29;;;;;;;3.03;2.75;;;;;;;19.31;68.87;96865.13;6277241;22;20031;-78
2022/06/13 04:15:16;;;;;;;4.18;2.58;;;;;;;19.26;68.66;96854.44;6276628;22;20015;-78
2022/06/13 04:17:54;;;;;;;5.50;3.17;;;;;;;19.24;68.41;96863.63;6277274;22;20083;-78
2022/06/13 04:20:30;;;;;;;5.32;3.15;;;;;;;19.19;68.23;96866.97;6276199;22;20015;-78
2022/06/13 04:23:09;;;;;;;4.63;2.88;;;;;;;19.17;70.94;96863.75;6276159;22;20022;-77
2022/06/13 04:25:46;;;;;;;9.55;4.00;;;;;;;19.17;68.55;96861.09;6276359;22;20061;-79
2022/06/13 04:28:21;;;;;;;10.75;3.60;;;;;;;19.18;69.84;96861.94;6276150;22;20039;-78
2022/06/13 04:30:52;;;;;;;5.55;2.60;;;;;;;19.23;71.76;96860.19;6275890;22;20016;-78
2022/06/13 04:33:27;;;;;;;3.88;2.70;;;;;;;19.28;70.64;96862.94;6276711;22;20015;-78
2022/06/13 04:35:56;;;;;;;4.13;2.97;;;;;;;19.33;70.26;96859.63;6276071;22;20329;-78
2022/06/13 04:38:28;;;;;;;3.80;2.03;;;;;;;19.33;70.87;96865.72;6277119;22;20023;-77
2022/06/13 04:41:00;;;;;;;5.07;2.97;;;;;;;19.30;68.74;96860.06;6275658;22;20022;-78
2022/06/13 04:43:35;;;;;;;3.55;2.05;;;;;;;19.33;71.42;96854.31;6276007;22;20094;-77
2022/06/13 04:46:08;;;;;;;15.70;8.82;;;;;;;19.34;69.16;96862.00;6276391;22;20062;-78
2022/06/13 04:48:39;;;;;;;4.75;3.15;;;;;;;19.35;69.01;96857.56;6288350;22;20043;-79
2022/06/13 04:51:11;;;;;;;3.33;2.50;;;;;;;19.30;68.47;96868.78;6281451;22;20026;-79
2022/06/13 04:53:54;;;;;;;4.13;2.47;;;;;;;19.27;68.73;96876.41;6278070;22;20578;-78
2022/06/13 05:02:57;;;;;;;2.63;2.15;;;;;;;19.26;69.63;96886.19;6284503;22;20396;-79
2022/06/13 05:06:21;;;;;;;4.40;2.58;;;;;;;19.25;68.90;96897.78;6297898;22;20027;-79
2022/06/13 05:12:29;;;;;;;3.63;2.63;;;;;;;19.22;70.66;96890.31;6270105;22;20015;-80
2022/06/13 05:15:19;;;;;;;7.10;2.70;;;;;;;19.24;70.32;96904.13;6250621;22;20024;-79
2022/06/13 05:21:21;;;;;;;5.03;2.75;;;;;;;19.31;71.99;96904.81;6285817;22;20011;-79
2022/06/13 05:24:06;;;;;;;5.60;3.00;;;;;;;19.31;69.46;96914.59;6255947;23;20421;-80
2022/06/13 05:29:43;;;;;;;6.95;3.88;;;;;;;19.24;68.94;96916.50;6218636;22;20095;-79
2022/06/13 05:32:22;;;;;;;9.77;3.50;;;;;;;19.19;68.46;96917.22;6262939;22;20004;-79
2022/06/13 05:34:55;;;;;;;4.13;2.97;;;;;;;19.20;69.73;96920.66;6264842;22;20043;-79
2022/06/13 05:37:25;;;;;;;;;;;;;;;19.23;68.39;96921.00;6262603;23;20030;-79
2022/06/13 05:39:58;;;;;;;3.30;2.83;;;;;;;19.20;69.03;96924.13;6264065;23;19942;-80
2022/06/13 05:42:31;;;;;;;5.78;3.55;;;;;;;19.21;68.71;96924.91;6262020;22;20020;-79
2022/06/13 05:45:02;;;;;;;7.32;3.42;;;;;;;19.22;69.50;96932.63;6260366;23;20020;-79
2022/06/13 05:47:33;;;;;;;4.80;3.55;;;;;;;19.24;68.39;96935.84;6262598;23;20067;-80
2022/06/13 05:50:04;;;;;;;7.18;2.40;;;;;;;19.24;68.37;96929.75;6261241;22;20044;-79
2022/06/13 05:52:36;;;;;;;3.92;2.67;;;;;;;19.27;67.91;96932.75;6262595;22;20027;-80
2022/06/13 05:55:15;;;;;;;5.53;2.72;;;;;;;19.30;69.85;96934.91;6262504;22;20055;-81
2022/06/13 05:58:03;;;;;;;4.65;3.00;;;;;;;19.34;67.87;96930.78;6262278;23;20020;-80
2022/06/13 06:00:39;;;;;;;3.95;2.80;;;;;;;19.39;67.65;96921.34;6261624;22;20027;-79
2022/06/13 06:03:10;;;;;;;5.38;2.92;;;;;;;19.43;67.69;96927.81;6260219;22;20023;-80
2022/06/13 06:05:46;;;;;;;4.00;2.67;;;;;;;19.48;67.60;96935.84;6261150;23;20536;-80
2022/06/13 06:08:22;;;;;;;4.25;2.85;;;;;;;19.47;67.32;96934.25;6262098;23;20016;-79
2022/06/13 06:10:56;;;;;;;3.60;2.78;;;;;;;19.44;67.20;96939.97;6260292;23;20031;-79
2022/06/13 06:13:31;;;;;;;4.50;2.53;;;;;;;19.46;67.44;96945.84;6261072;22;20020;-79
2022/06/13 06:16:03;;;;;;;2.10;1.90;;;;;;;19.48;67.24;96941.13;6258723;23;20075;-79
2022/06/13 06:18:37;;;;;;;2.58;2.30;;;;;;;19.47;65.85;96939.53;6243685;23;20023;-80
2022/06/13 06:21:08;;;;;;;6.68;2.30;;;;;;;19.46;65.09;96943.22;6257035;23;20016;-80
2022/06/13 08:33:12;;;;;;;4.22;2.00;;;;;;;21.01;54.21;97038.09;6237272;22;20458;-80
2022/06/13 08:35:40;;;;;;;4.47;2.15;;;;;;;21.02;54.22;97040.50;6247197;22;20048;-80
2022/06/13 08:38:08;;;;;;;13.35;2.72;;;;;;;21.04;54.28;97037.63;6247616;23;20034;-80
2022/06/13 08:40:42;;;;;;;6.00;2.30;;;;;;;21.06;52.99;97035.56;6245677;23;20060;-79
2022/06/13 08:43:24;;;;;;;6.97;2.90;;;;;;;21.06;52.67;97035.56;6245554;22;20107;-81
2022/06/13 11:56:49;;;;;;;2.50;1.15;;;;;;;23.17;36.31;97088.03;6225283;22;20070;-78
2022/06/13 11:59:18;;;;;;;3.55;1.00;;;;;;;23.16;36.38;97092.53;6245555;23;20095;-80
2022/06/13 12:01:57;;;;;;;1.80;1.05;;;;;;;23.20;35.50;97091.00;6244484;23;20016;-79
2022/06/13 12:04:25;;;;;;;2.10;1.05;;;;;;;23.21;36.29;97086.47;6245231;23;20021;-79
2022/06/13 12:07:00;;;;;;;3.85;1.27;;;;;;;23.25;35.15;97087.56;6249273;22;20028;-82
2022/06/13 12:09:31;;;;;;;4.18;1.33;;;;;;;23.29;34.53;97091.34;6246630;23;20367;-81
2022/06/13 12:12:03;;;;;;;2.80;1.10;;;;;;;23.30;34.21;97095.59;6245697;23;20028;-81
2022/06/13 12:14:36;;;;;;;4.00;1.17;;;;;;;23.30;34.44;97084.16;6247110;23;20074;-81
2022/06/13 12:17:10;;;;;;;2.97;1.40;;;;;;;23.28;34.11;97092.38;6248454;22;20055;-80
2022/06/13 12:19:44;;;;;;;6.70;1.10;;;;;;;23.29;33.40;97096.69;6246010;23;20103;-81
2022/06/13 12:22:16;;;;;;;4.85;1.30;;;;;;;23.31;32.42;97102.56;6245019;23;20544;-80
2022/06/13 12:25:02;;;;;;;3.10;1.00;;;;;;;23.28;32.75;97089.72;6245407;23;20023;-80
2022/06/13 12:27:41;;;;;;;1.38;0.98;;;;;;;23.31;34.35;97099.88;6245291;22;20024;-80
2022/06/13 12:30:33;;;;;;;9.60;2.13;;;;;;;23.33;33.40;97097.78;6244536;23;20412;-80
2022/06/13 12:33:12;;;;;;;6.37;1.70;;;;;;;23.31;33.07;97097.22;6245431;23;20067;-80
2022/06/13 12:35:52;;;;;;;4.50;1.08;;;;;;;23.27;33.70;97101.44;6245517;23;20274;-80
2022/06/13 12:38:42;;;;;;;4.10;1.58;;;;;;;23.26;32.76;97107.81;6244856;23;20100;-80
2022/06/13 12:41:19;;;;;;;4.85;1.52;;;;;;;23.24;33.75;97104.59;6244996;23;20066;-79
2022/06/13 12:44:07;;;;;;;4.50;1.20;;;;;;;23.22;32.70;97107.53;6245374;23;20078;-80
2022/06/13 12:46:56;;;;;;;3.78;1.13;;;;;;;23.17;33.92;97101.31;6244564;22;20035;-80
2022/06/13 12:49:45;;;;;;;6.70;1.20;;;;;;;23.17;33.38;97101.31;6179773;23;20090;-80
2022/06/13 12:52:28;;;;;;;2.55;1.08;;;;;;;23.22;34.96;97112.00;6244443;22;20087;-80
2022/06/13 12:55:04;;;;;;;1.20;0.70;;;;;;;23.22;32.96;97109.34;6245121;23;20027;-80
2022/06/13 12:57:58;;;;;;;5.55;0.93;;;;;;;23.24;32.67;97112.56;6244530;22;20538;-80
2022/06/13 13:00:38;;;;;;;2.83;0.82;;;;;;;23.28;32.18;97107.56;6244965;23;20365;-80
2022/06/13 13:03:20;;;;;;;2.67;0.63;;;;;;;23.27;32.04;97108.63;6244472;23;20040;-80
2022/06/13 13:06:00;;;;;;;2.63;1.40;;;;;;;23.24;31.63;97108.06;6244491;23;20329;-81
2022/06/13 13:08:43;;;;;;;2.03;1.30;;;;;;;23.19;31.26;97109.88;6244619;23;20455;-80
2022/06/13 13:11:24;;;;;;;2.35;0.70;;;;;;;23.16;32.41;97110.38;6244676;23;20028;-80
2022/06/13 13:14:01;;;;;;;5.82;0.95;;;;;;;23.13;32.85;97111.66;6244525;23;20105;-80
2022/06/13 13:16:40;;;;;;;1.13;0.70;;;;;;;23.12;32.81;97112.72;6244902;22;20048;-81
2022/06/13 13:19:25;;;;;;;1.90;1.00;;;;;;;23.09;31.58;97113.22;6244782;23;20024;-80
2022/06/13 13:21:57;;;;;;;4.05;1.30;;;;;;;23.07;31.90;97112.69;6244548;23;20077;-79
2022/06/13 13:24:32;;;;;;;;;;;;;;;23.04;31.93;97108.63;6245064;23;20074;-80
2022/06/13 13:27:04;;;;;;;1.77;0.93;;;;;;;22.96;32.59;97111.72;6244792;22;20232;-80
2022/06/13 13:29:43;;;;;;;1.70;0.70;;;;;;;22.92;32.42;97110.59;6244927;23;20071;-78
2022/06/13 13:32:22;;;;;;;3.70;1.30;;;;;;;22.92;33.21;97113.28;6244578;23;20100;-80
2022/06/13 13:35:05;;;;;;;2.92;0.93;;;;;;;22.95;32.95;97110.09;6247570;23;20020;-82
2022/06/13 13:37:36;;;;;;;3.90;1.10;;;;;;;22.96;33.12;97101.09;6253067;22;20024;-78
2022/06/13 13:40:10;;;;;;;;;;;;;;;23.02;33.59;97109.94;6248775;23;20235;-79
2022/06/13 13:42:43;;;;;;;;;;;;;;;23.04;33.33;97103.31;6246086;23;19994;-78
2022/06/13 13:45:29;;;;;;;2.15;1.10;;;;;;;23.05;32.79;97106.81;6245091;23;20259;-80
2022/06/13 13:48:05;;;;;;;2.03;0.80;;;;;;;23.05;31.29;97106.81;6245010;22;20146;-80
2022/06/13 13:50:41;;;;;;;4.20;1.10;;;;;;;23.04;31.07;97108.63;6244747;23;20051;-79
2022/06/13 13:53:11;;;;;;;2.45;1.17;;;;;;;23.07;31.88;97114.50;6244770;23;20111;-81
2022/06/13 13:55:43;;;;;;;2.25;1.20;;;;;;;23.09;31.88;97115.06;6244600;23;20103;-80
2022/06/13 13:58:18;;;;;;;2.22;1.10;;;;;;;23.07;31.82;97111.84;6244153;22;20130;-79
2022/06/13 14:00:54;;;;;;;4.43;2.03;;;;;;;23.08;33.12;97113.47;6244509;23;20059;-79
2022/06/13 14:03:37;;;;;;;5.07;1.95;;;;;;;23.10;32.75;97111.38;6244213;23;20023;-80
2022/06/13 14:06:09;;;;;;;2.33;1.00;;;;;;;23.10;32.55;97106.06;6244585;22;20111;-79
2022/06/13 14:08:43;;;;;;;2.00;1.05;;;;;;;23.10;31.33;97103.38;6244717;23;20055;-80
2022/06/13 14:11:12;;;;;;;2.85;0.75;;;;;;;23.12;31.11;97106.59;6244698;23;20053;-79
2022/06/13 14:13:42;;;;;;;2.92;1.27;;;;;;;23.11;30.47;97108.47;6245457;23;20024;-80
2022/06/13 14:16:15;;;;;;;4.18;0.88;;;;;;;23.14;30.82;97107.97;6244869;22;21377;-80
2022/06/13 14:19:01;;;;;;;3.80;0.70;;;;;;;23.17;29.85;97107.44;6246452;23;20070;-79
2022/06/13 14:21:58;;;;;;;1.15;1.00;;;;;;;23.20;31.44;97106.16;6245983;22;20022;-80
2022/06/13 14:24:30;;;;;;;2.65;1.20;;;;;;;23.20;32.54;97106.16;6246802;22;20024;-80
2022/06/13 14:27:07;;;;;;;1.27;1.00;;;;;;;23.21;31.93;97102.44;6246533;22;20024;-81
2022/06/13 14:29:39;;;;;;;4.53;1.13;;;;;;;23.19;31.20;97099.22;6246805;22;20020;-81
2022/06/13 14:32:10;;;;;;;3.30;1.45;;;;;;;23.19;31.52;97104.53;6246350;23;20098;-80
2022/06/13 14:38:14;;;;;;;3.15;0.88;;;;;;;23.12;30.61;97112.72;6246339;22;20388;-80
2022/06/13 14:40:45;;;;;;;6.00;1.25;;;;;;;23.07;31.82;97114.50;6246392;23;20026;-80
2022/06/13 14:43:23;;;;;;;3.30;1.10;;;;;;;23.03;30.07;97106.25;6246114;22;20043;-81
2022/06/13 14:45:56;;;;;;;1.70;1.10;;;;;;;23.03;30.34;97107.03;6245935;22;20464;-78
2022/06/13 14:48:32;;;;;;;1.65;1.15;;;;;;;22.99;30.70;97113.09;6246270;23;20020;-78
2022/06/13 14:51:54;;;;;;;2.97;0.98;;;;;;;22.95;30.46;97109.31;6246062;23;20078;-78
2022/06/13 14:54:41;;;;;;;3.28;1.30;;;;;;;22.89;30.15;97111.09;6153376;23;20384;-80
2022/06/13 14:57:44;;;;;;;2.05;0.90;;;;;;;22.86;30.44;97111.59;6153042;23;20028;-78
2022/06/13 15:00:19;;;;;;;6.90;1.20;;;;;;;22.84;31.03;97103.84;6242161;23;20332;-79
2022/06/13 15:03:15;;;;;;;4.93;1.20;;;;;;;22.85;32.21;97107.34;6245823;23;20020;-81
2022/06/13 15:06:04;;;;;;;2.35;1.23;;;;;;;22.83;30.22;97101.47;6245723;23;20016;-78
2022/06/13 15:09:02;;;;;;;4.03;1.00;;;;;;;22.80;31.35;97107.25;6245935;23;20062;-78
2022/06/13 15:11:32;;;;;;;3.03;1.45;;;;;;;22.71;30.83;97109.53;6245935;23;20051;-78
2022/06/13 15:14:01;;;;;;;1.63;0.85;;;;;;;22.68;30.93;97103.94;6245947;23;20074;-81
2022/06/13 15:16:31;;;;;;;2.65;1.13;;;;;;;22.65;31.70;97104.41;6245969;22;20095;-81
2022/06/13 15:19:03;;;;;;;2.17;0.90;;;;;;;22.63;30.84;97097.50;6245803;23;20013;-81
2022/06/13 15:21:35;;;;;;;4.00;1.00;;;;;;;22.66;30.92;97100.72;6245769;23;20030;-81
2022/06/13 15:24:11;;;;;;;3.00;1.25;;;;;;;22.63;31.29;97108.13;6246271;23;20266;-81
2022/06/13 15:26:42;;;;;;;2.53;1.20;;;;;;;22.61;31.55;97104.13;6245575;22;20460;-81
2022/06/13 15:29:15;;;;;;;2.53;1.38;;;;;;;22.58;31.36;97105.38;6245946;23;20078;-78
2022/06/13 15:31:45;;;;;;;1.90;1.40;;;;;;;22.55;30.49;97105.09;6245691;23;20103;-80
2022/06/13 15:34:15;;;;;;;3.15;1.23;;;;;;;22.55;32.01;97102.44;6253024;23;20020;-82
2022/06/13 15:36:51;;;;;;;3.20;1.15;;;;;;;22.54;31.66;97098.97;6251265;22;20399;-82
2022/06/13 15:39:21;;;;;;;2.47;0.80;;;;;;;22.55;32.30;97091.81;6252471;23;20016;-80
2022/06/13 15:41:52;;;;;;;5.60;2.10;;;;;;;22.57;32.17;97092.38;6248322;23;20108;-81
2022/06/13 15:44:22;;;;;;;1.70;1.10;;;;;;;22.57;30.63;97095.81;6246690;23;20016;-81
2022/06/13 15:46:59;;;;;;;3.50;1.30;;;;;;;22.58;31.37;97100.06;6246367;22;20333;-79
2022/06/13 15:49:30;;;;;;;2.50;0.88;;;;;;;22.58;31.64;97092.09;6246774;23;20024;-81
2022/06/13 15:52:04;;;;;;;7.03;2.95;;;;;;;22.60;30.76;97090.00;6245593;23;20016;-81
2022/06/13 15:54:38;;;;;;;11.70;4.40;;;;;;;22.59;30.15;97099.03;6245995;23;20021;-78
2022/06/13 15:57:10;;;;;;;14.63;8.02;;;;;;;22.59;30.13;97095.59;6245297;22;20048;-81
2022/06/13 15:59:54;;;;;;;6.80;3.83;;;;;;;22.59;30.56;97096.38;6245423;23;20407;-78
2022/06/13 16:02:27;;;;;;;2.92;1.80;;;;;;;22.58;30.18;97089.44;6245645;23;20051;-79
2022/06/13 16:04:54;;;;;;;2.00;1.30;;;;;;;22.59;29.97;97090.25;6245803;23;20026;-80
2022/06/13 16:07:27;;;;;;;3.15;2.20;;;;;;;22.56;30.08;97086.22;6245348;22;20042;-80
2022/06/13 16:09:56;;;;;;;30.08;21.98;;;;;;;22.56;31.34;97094.19;6245478;23;20027;-80
2022/06/13 16:12:33;;;;;;;3.72;2.10;;;;;;;22.56;30.64;97088.88;6245762;23;20032;-81
2022/06/13 16:15:01;;;;;;;3.95;1.60;;;;;;;22.54;29.94;97077.72;6245321;23;20016;-81
2022/06/13 16:17:32;;;;;;;4.53;1.42;;;;;;;22.55;29.80;97083.81;6245327;22;20082;-81
2022/06/13 16:20:18;;;;;;;3.17;1.40;;;;;;;22.54;30.29;97088.34;6246662;22;20020;-81
2022/06/13 16:22:49;;;;;;;2.85;1.10;;;;;;;22.52;30.65;97085.13;6245437;23;20027;-80
2022/06/13 16:25:23;;;;;;;2.92;1.30;;;;;;;22.50;29.45;97079.25;6246004;23;20016;-79
2022/06/13 16:27:51;;;;;;;1.45;1.00;;;;;;;22.49;30.42;97082.94;6245436;22;20052;-80
2022/06/13 16:30:19;;;;;;;3.90;1.48;;;;;;;22.51;30.51;97078.19;6247108;23;20095;-81
2022/06/13 16:32:50;;;;;;;2.55;1.30;;;;;;;22.55;30.62;97089.16;6247482;23;20048;-79
2022/06/13 16:35:19;;;;;;;2.88;1.50;;;;;;;22.56;30.67;97086.22;6252750;23;20020;-82
2022/06/13 16:38:02;;;;;;;1.95;1.08;;;;;;;22.57;29.79;97076.41;6252741;22;20090;-80
2022/06/13 16:40:41;;;;;;;4.03;1.13;;;;;;;22.55;31.03;97079.31;6246180;23;20355;-79
2022/06/13 16:43:21;;;;;;;2.90;0.98;;;;;;;22.55;30.67;97079.31;6245602;23;20032;-78
2022/06/13 16:45:57;;;;;;;3.03;1.33;;;;;;;22.54;29.99;97085.69;6245862;23;20079;-78
2022/06/13 16:48:25;;;;;;;3.95;0.98;;;;;;;22.51;30.32;97074.72;6245316;22;20444;-81
2022/06/13 16:51:04;;;;;;;1.92;1.10;;;;;;;22.52;31.16;97082.47;6245084;23;20024;-79
2022/06/13 16:53:33;;;;;;;2.88;1.23;;;;;;;22.52;31.11;97078.97;6245920;22;20091;-81
2022/06/13 16:56:03;;;;;;;3.10;1.17;;;;;;;22.52;32.10;97077.16;6245366;22;20020;-81
2022/06/13 16:58:33;;;;;;;1.50;1.17;;;;;;;22.52;31.80;97073.66;6245242;23;20500;-80
2022/06/13 17:01:04;;;;;;;2.92;1.20;;;;;;;22.49;31.09;97080.28;6244613;23;20049;-80
2022/06/13 17:03:53;;;;;;;1.85;1.15;;;;;;;22.49;31.19;97079.50;6245264;23;20062;-80
2022/06/13 17:06:28;;;;;;;5.03;1.40;;;;;;;22.48;32.42;97078.69;6244955;22;20351;-80
2022/06/13 17:09:04;;;;;;;4.43;1.35;;;;;;;22.48;31.90;97077.88;6245391;23;20047;-79
2022/06/13 17:12:03;;;;;;;2.95;1.35;;;;;;;22.45;31.58;97079.16;6245827;23;20115;-80
2022/06/13 17:14:52;;;;;;;5.15;1.30;;;;;;;22.41;31.03;97075.38;6245897;23;20063;-80
2022/06/13 17:17:30;;;;;;;2.05;1.40;;;;;;;22.39;32.55;97073.00;6244927;22;20028;-81
2022/06/13 17:20:00;;;;;;;4.80;2.55;;;;;;;22.38;31.79;97067.91;6244848;23;20468;-77
2022/06/13 17:22:29;;;;;;;12.98;8.63;;;;;;;22.38;31.82;97068.72;6245149;23;20023;-80
2022/06/13 17:24:57;;;;;;;7.40;3.63;;;;;;;22.38;31.31;97067.91;6245009;23;20238;-80
2022/06/13 17:32:59;;;;;;;2.80;1.48;;;;;;;22.33;31.54;97065.19;6249541;23;20415;-80
2022/06/13 17:35:27;;;;;;;2.33;1.08;;;;;;;22.31;31.64;97064.63;6249266;23;20356;-80
2022/06/13 17:37:55;;;;;;;3.88;1.30;;;;;;;22.30;32.16;97068.34;6249473;22;20086;-79
2022/06/13 17:40:23;;;;;;;3.17;1.55;;;;;;;22.28;31.94;97078.41;6245540;23;20071;-79
2022/06/13 17:42:52;;;;;;;1.52;1.10;;;;;;;22.27;32.42;97074.16;6246229;23;20074;-79
2022/06/13 17:45:20;;;;;;;2.60;1.30;;;;;;;22.27;33.22;97082.13;6245095;23;20099;-79
2022/06/13 17:47:48;;;;;;;4.40;1.90;;;;;;;22.26;32.88;97076.00;6244735;22;20087;-78
2022/06/13 17:50:19;;;;;;;3.13;1.80;;;;;;;22.26;31.72;97085.81;6245666;23;20095;-79
2022/06/13 17:52:47;;;;;;;6.18;1.92;;;;;;;22.25;33.73;97084.22;6247946;23;20031;-79
2022/06/13 17:55:17;;;;;;;3.55;1.15;;;;;;;22.26;32.25;97083.16;6247770;23;20062;-79
2022/06/13 17:57:45;;;;;;;1.98;1.40;;;;;;;22.25;32.42;97078.91;6246960;22;20043;-79
2022/06/13 18:00:18;;;;;;;2.45;1.20;;;;;;;22.22;31.76;97085.50;6246688;23;20507;-79
2022/06/13 18:02:48;;;;;;;2.88;1.20;;;;;;;22.21;32.98;97086.50;6246582;23;20019;-79